sensor_id;sensor_type;location;lat;lon;timestamp;temperature;humidity
50512;DHT22;36446;47.642;-3.018;2022-08-19T00:00:26;20.00;99.90
50512;DHT22;36446;47.642;-3.018;2022-08-19T00:02:53;20.10;99.90
50512;DHT22;36446;47.642;-3.018;2022-08-19T00:05:19;20.00;99.90
50512;DHT22;36446;47.642;-3.018;2022-08-19T00:07:45;20.00;99.90
50512;DHT22;36446;47.642;-3.018;2022-08-19T00:10:12;20.00;99.90
50512;DHT22;36446;47.642;-3.018;2022-08-19T00:12:39;19.90;99.90
50512;DHT22;36446;47.642;-3.018;2022-08-19T00:15:07;19.90;99.90
50512;DHT22;36446;47.642;-3.018;2022-08-19T00:17:40;19.90;99.90
50512;DHT22;36446;47.642;-3.018;2022-08-19T00:20:08;20.00;99.90
50512;DHT22;36446;47.642;-3.018;2022-08-19T00:22:34;20.10;99.90
50512;DHT22;36446;47.642;-3.018;2022-08-19T00:25:00;20.00;99.90
50512;DHT22;36446;47.642;-3.018;2022-08-19T00:27:25;19.90;99.90
50512;DHT22;36446;47.642;-3.018;2022-08-19T00:29:51;19.90;99.90
50512;DHT22;36446;47.642;-3.018;2022-08-19T00:32:17;20.00;99.90
50512;DHT22;36446;47.642;-3.018;2022-08-19T00:34:42;19.90;99.90
50512;DHT22;36446;47.642;-3.018;2022-08-19T00:37:09;19.80;99.90
50512;DHT22;36446;47.642;-3.018;2022-08-19T00:39:34;19.80;99.90
50512;DHT22;36446;47.642;-3.018;2022-08-19T00:42:00;19.80;99.90
50512;DHT22;36446;47.642;-3.018;2022-08-19T00:44:28;19.80;99.90
50512;DHT22;36446;47.642;-3.018;2022-08-19T00:46:56;19.90;99.90
50512;DHT22;36446;47.642;-3.018;2022-08-19T00:52:30;19.80;99.90
50512;DHT22;36446;47.642;-3.018;2022-08-19T00:54:58;19.80;99.90
50512;DHT22;36446;47.642;-3.018;2022-08-19T00:57:29;19.80;99.90
50512;DHT22;36446;47.642;-3.018;2022-08-19T00:59:58;19.80;99.90
50512;DHT22;36446;47.642;-3.018;2022-08-19T01:02:25;19.90;99.90
50512;DHT22;36446;47.642;-3.018;2022-08-19T01:04:52;19.90;99.90
50512;DHT22;36446;47.642;-3.018;2022-08-19T01:07:18;19.80;99.90
50512;DHT22;36446;47.642;-3.018;2022-08-19T01:09:44;19.80;99.90
50512;DHT22;36446;47.642;-3.018;2022-08-19T01:12:09;19.80;99.90
50512;DHT22;36446;47.642;-3.018;2022-08-19T01:14:37;19.80;99.90
50512;DHT22;36446;47.642;-3.018;2022-08-19T01:17:04;19.80;99.90
50512;DHT22;36446;47.642;-3.018;2022-08-19T01:19:34;19.90;99.90
50512;DHT22;36446;47.642;-3.018;2022-08-19T01:22:11;19.70;99.90
50512;DHT22;36446;47.642;-3.018;2022-08-19T01:24:37;19.70;99.90
50512;DHT22;36446;47.642;-3.018;2022-08-19T01:27:06;19.70;99.90
50512;DHT22;36446;47.642;-3.018;2022-08-19T01:29:33;19.70;99.90
50512;DHT22;36446;47.642;-3.018;2022-08-19T01:31:59;19.70;99.90
50512;DHT22;36446;47.642;-3.018;2022-08-19T01:34:26;19.70;99.90
50512;DHT22;36446;47.642;-3.018;2022-08-19T01:36:51;19.70;99.90
50512;DHT22;36446;47.642;-3.018;2022-08-19T01:39:21;19.70;99.90
50512;DHT22;36446;47.642;-3.018;2022-08-19T01:41:47;19.60;99.90
50512;DHT22;36446;47.642;-3.018;2022-08-19T01:44:14;19.60;99.90
50512;DHT22;36446;47.642;-3.018;2022-08-19T01:46:41;19.70;99.90
50512;DHT22;36446;47.642;-3.018;2022-08-19T01:49:07;19.70;99.90
50512;DHT22;36446;47.642;-3.018;2022-08-19T01:51:33;19.70;99.90
50512;DHT22;36446;47.642;-3.018;2022-08-19T01:53:59;19.70;99.90
50512;DHT22;36446;47.642;-3.018;2022-08-19T01:56:25;19.80;99.90
50512;DHT22;36446;47.642;-3.018;2022-08-19T01:59:03;19.80;99.90
50512;DHT22;36446;47.642;-3.018;2022-08-19T02:01:29;19.70;99.90
50512;DHT22;36446;47.642;-3.018;2022-08-19T02:03:58;19.60;99.90
50512;DHT22;36446;47.642;-3.018;2022-08-19T02:06:24;19.70;99.90
50512;DHT22;36446;47.642;-3.018;2022-08-19T02:08:49;19.60;99.90
50512;DHT22;36446;47.642;-3.018;2022-08-19T02:11:25;19.60;99.90
50512;DHT22;36446;47.642;-3.018;2022-08-19T02:13:52;19.70;99.90
50512;DHT22;36446;47.642;-3.018;2022-08-19T02:16:19;19.70;99.90
50512;DHT22;36446;47.642;-3.018;2022-08-19T02:18:46;19.70;99.90
50512;DHT22;36446;47.642;-3.018;2022-08-19T02:21:15;19.70;99.90
50512;DHT22;36446;47.642;-3.018;2022-08-19T02:23:42;19.70;99.90
50512;DHT22;36446;47.642;-3.018;2022-08-19T02:26:09;19.80;99.90
50512;DHT22;36446;47.642;-3.018;2022-08-19T02:28:34;19.90;99.90
50512;DHT22;36446;47.642;-3.018;2022-08-19T02:31:00;19.90;99.90
50512;DHT22;36446;47.642;-3.018;2022-08-19T02:33:27;19.90;99.90
50512;DHT22;36446;47.642;-3.018;2022-08-19T02:35:53;20.00;99.90
50512;DHT22;36446;47.642;-3.018;2022-08-19T02:38:19;20.00;99.90
50512;DHT22;36446;47.642;-3.018;2022-08-19T02:40:58;20.00;99.90
50512;DHT22;36446;47.642;-3.018;2022-08-19T02:43:25;20.00;99.90
50512;DHT22;36446;47.642;-3.018;2022-08-19T02:45:52;19.90;99.90
50512;DHT22;36446;47.642;-3.018;2022-08-19T02:48:20;19.90;99.90
50512;DHT22;36446;47.642;-3.018;2022-08-19T02:50:46;19.90;99.90
50512;DHT22;36446;47.642;-3.018;2022-08-19T02:53:12;20.00;99.90
50512;DHT22;36446;47.642;-3.018;2022-08-19T02:55:46;20.00;99.90
50512;DHT22;36446;47.642;-3.018;2022-08-19T02:58:13;20.00;99.90
50512;DHT22;36446;47.642;-3.018;2022-08-19T03:00:50;20.10;99.90
50512;DHT22;36446;47.642;-3.018;2022-08-19T03:03:17;20.00;99.90
50512;DHT22;36446;47.642;-3.018;2022-08-19T03:05:44;20.10;99.90
50512;DHT22;36446;47.642;-3.018;2022-08-19T03:08:10;20.20;99.90
50512;DHT22;36446;47.642;-3.018;2022-08-19T03:10:46;20.20;99.90
50512;DHT22;36446;47.642;-3.018;2022-08-19T03:13:17;20.20;99.90
50512;DHT22;36446;47.642;-3.018;2022-08-19T03:15:45;20.10;99.90
50512;DHT22;36446;47.642;-3.018;2022-08-19T03:18:12;20.10;99.90
50512;DHT22;36446;47.642;-3.018;2022-08-19T03:20:46;20.10;99.90
50512;DHT22;36446;47.642;-3.018;2022-08-19T03:23:13;20.20;99.90
50512;DHT22;36446;47.642;-3.018;2022-08-19T03:25:40;20.20;99.90
50512;DHT22;36446;47.642;-3.018;2022-08-19T03:28:09;20.10;99.90
50512;DHT22;36446;47.642;-3.018;2022-08-19T03:30:35;20.10;99.90
50512;DHT22;36446;47.642;-3.018;2022-08-19T03:33:00;20.10;99.90
50512;DHT22;36446;47.642;-3.018;2022-08-19T03:35:27;20.10;99.90
50512;DHT22;36446;47.642;-3.018;2022-08-19T03:37:53;20.10;99.90
50512;DHT22;36446;47.642;-3.018;2022-08-19T03:40:18;20.10;99.90
50512;DHT22;36446;47.642;-3.018;2022-08-19T03:42:44;20.20;99.90
50512;DHT22;36446;47.642;-3.018;2022-08-19T03:45:11;20.10;99.90
50512;DHT22;36446;47.642;-3.018;2022-08-19T03:47:37;20.10;99.90
50512;DHT22;36446;47.642;-3.018;2022-08-19T03:50:04;20.10;99.90
50512;DHT22;36446;47.642;-3.018;2022-08-19T03:52:30;20.00;99.90
50512;DHT22;36446;47.642;-3.018;2022-08-19T03:54:55;19.90;99.90
50512;DHT22;36446;47.642;-3.018;2022-08-19T03:57:21;19.90;99.90
50512;DHT22;36446;47.642;-3.018;2022-08-19T03:59:47;19.90;99.90
50512;DHT22;36446;47.642;-3.018;2022-08-19T04:02:13;19.90;99.90
50512;DHT22;36446;47.642;-3.018;2022-08-19T04:04:40;19.90;99.90
50512;DHT22;36446;47.642;-3.018;2022-08-19T04:07:06;20.00;99.90
50512;DHT22;36446;47.642;-3.018;2022-08-19T04:09:34;20.00;99.90
50512;DHT22;36446;47.642;-3.018;2022-08-19T04:11:59;20.00;99.90
50512;DHT22;36446;47.642;-3.018;2022-08-19T04:14:28;20.00;99.90
50512;DHT22;36446;47.642;-3.018;2022-08-19T04:16:58;20.10;99.90
50512;DHT22;36446;47.642;-3.018;2022-08-19T04:19:25;20.10;99.90
50512;DHT22;36446;47.642;-3.018;2022-08-19T04:21:53;20.10;99.90
50512;DHT22;36446;47.642;-3.018;2022-08-19T04:24:20;20.10;99.90
50512;DHT22;36446;47.642;-3.018;2022-08-19T04:26:46;20.10;99.90
50512;DHT22;36446;47.642;-3.018;2022-08-19T04:29:22;20.10;99.90
50512;DHT22;36446;47.642;-3.018;2022-08-19T04:31:50;20.10;99.90
50512;DHT22;36446;47.642;-3.018;2022-08-19T04:34:18;20.10;99.90
50512;DHT22;36446;47.642;-3.018;2022-08-19T04:36:47;20.20;99.90
50512;DHT22;36446;47.642;-3.018;2022-08-19T04:39:16;20.10;99.90
50512;DHT22;36446;47.642;-3.018;2022-08-19T04:41:43;20.10;99.90
50512;DHT22;36446;47.642;-3.018;2022-08-19T04:44:28;20.10;99.90
50512;DHT22;36446;47.642;-3.018;2022-08-19T04:46:56;20.10;99.90
50512;DHT22;36446;47.642;-3.018;2022-08-19T04:49:22;20.20;99.90
50512;DHT22;36446;47.642;-3.018;2022-08-19T04:51:49;20.20;99.90
50512;DHT22;36446;47.642;-3.018;2022-08-19T04:54:16;20.10;99.90
50512;DHT22;36446;47.642;-3.018;2022-08-19T04:56:42;20.10;99.90
50512;DHT22;36446;47.642;-3.018;2022-08-19T04:59:09;20.10;99.90
50512;DHT22;36446;47.642;-3.018;2022-08-19T05:01:36;20.10;99.90
50512;DHT22;36446;47.642;-3.018;2022-08-19T05:04:04;20.00;99.90
50512;DHT22;36446;47.642;-3.018;2022-08-19T05:06:31;20.00;99.90
50512;DHT22;36446;47.642;-3.018;2022-08-19T05:09:00;20.00;99.90
50512;DHT22;36446;47.642;-3.018;2022-08-19T05:11:29;20.10;99.90
50512;DHT22;36446;47.642;-3.018;2022-08-19T05:13:55;20.10;99.90
50512;DHT22;36446;47.642;-3.018;2022-08-19T05:16:23;20.20;99.90
50512;DHT22;36446;47.642;-3.018;2022-08-19T05:18:49;20.20;99.90
50512;DHT22;36446;47.642;-3.018;2022-08-19T05:21:34;20.20;99.90
50512;DHT22;36446;47.642;-3.018;2022-08-19T05:24:20;20.20;99.90
50512;DHT22;36446;47.642;-3.018;2022-08-19T05:26:48;20.20;99.90
50512;DHT22;36446;47.642;-3.018;2022-08-19T05:29:16;20.10;99.90
50512;DHT22;36446;47.642;-3.018;2022-08-19T05:31:43;20.10;99.90
50512;DHT22;36446;47.642;-3.018;2022-08-19T05:34:09;20.10;99.90
50512;DHT22;36446;47.642;-3.018;2022-08-19T05:36:41;20.00;99.90
50512;DHT22;36446;47.642;-3.018;2022-08-19T05:39:12;20.00;99.90
50512;DHT22;36446;47.642;-3.018;2022-08-19T05:41:45;20.00;99.90
50512;DHT22;36446;47.642;-3.018;2022-08-19T05:44:12;20.10;99.90
50512;DHT22;36446;47.642;-3.018;2022-08-19T05:46:39;20.10;99.90
50512;DHT22;36446;47.642;-3.018;2022-08-19T05:49:06;20.10;99.90
50512;DHT22;36446;47.642;-3.018;2022-08-19T05:51:33;20.10;99.90
50512;DHT22;36446;47.642;-3.018;2022-08-19T05:54:00;20.10;99.90
50512;DHT22;36446;47.642;-3.018;2022-08-19T05:56:26;20.10;99.90
50512;DHT22;36446;47.642;-3.018;2022-08-19T05:58:52;20.10;99.90
50512;DHT22;36446;47.642;-3.018;2022-08-19T06:01:19;20.10;99.90
50512;DHT22;36446;47.642;-3.018;2022-08-19T06:03:46;20.10;99.90
50512;DHT22;36446;47.642;-3.018;2022-08-19T06:06:14;20.20;99.90
50512;DHT22;36446;47.642;-3.018;2022-08-19T06:08:41;20.10;99.90
50512;DHT22;36446;47.642;-3.018;2022-08-19T06:11:14;20.10;99.90
50512;DHT22;36446;47.642;-3.018;2022-08-19T06:13:40;20.20;99.90
50512;DHT22;36446;47.642;-3.018;2022-08-19T06:16:05;20.20;99.90
50512;DHT22;36446;47.642;-3.018;2022-08-19T06:18:31;20.20;99.90
50512;DHT22;36446;47.642;-3.018;2022-08-19T06:20:58;20.20;99.90
50512;DHT22;36446;47.642;-3.018;2022-08-19T06:23:24;20.10;99.90
50512;DHT22;36446;47.642;-3.018;2022-08-19T06:25:49;20.10;99.90
50512;DHT22;36446;47.642;-3.018;2022-08-19T06:28:15;20.20;99.90
50512;DHT22;36446;47.642;-3.018;2022-08-19T06:30:40;20.20;99.90
50512;DHT22;36446;47.642;-3.018;2022-08-19T06:33:07;20.10;99.90
50512;DHT22;36446;47.642;-3.018;2022-08-19T06:35:32;20.20;99.90
50512;DHT22;36446;47.642;-3.018;2022-08-19T06:37:58;20.30;99.90
50512;DHT22;36446;47.642;-3.018;2022-08-19T06:40:25;20.30;99.90
50512;DHT22;36446;47.642;-3.018;2022-08-19T06:42:52;20.30;99.90
50512;DHT22;36446;47.642;-3.018;2022-08-19T06:45:18;20.30;99.90
50512;DHT22;36446;47.642;-3.018;2022-08-19T06:47:43;20.40;99.90
50512;DHT22;36446;47.642;-3.018;2022-08-19T06:50:12;20.30;99.90
50512;DHT22;36446;47.642;-3.018;2022-08-19T06:52:37;20.40;99.90
50512;DHT22;36446;47.642;-3.018;2022-08-19T06:55:05;20.40;99.90
50512;DHT22;36446;47.642;-3.018;2022-08-19T06:57:31;20.30;99.90
50512;DHT22;36446;47.642;-3.018;2022-08-19T06:59:58;20.30;99.90
50512;DHT22;36446;47.642;-3.018;2022-08-19T07:02:25;20.30;99.90
50512;DHT22;36446;47.642;-3.018;2022-08-19T07:04:52;20.30;99.90
50512;DHT22;36446;47.642;-3.018;2022-08-19T07:07:19;20.40;99.90
50512;DHT22;36446;47.642;-3.018;2022-08-19T07:09:45;20.40;99.90
50512;DHT22;36446;47.642;-3.018;2022-08-19T07:12:13;20.40;99.90
50512;DHT22;36446;47.642;-3.018;2022-08-19T07:14:41;20.30;99.90
50512;DHT22;36446;47.642;-3.018;2022-08-19T07:17:09;20.30;99.90
50512;DHT22;36446;47.642;-3.018;2022-08-19T07:19:37;20.40;99.90
50512;DHT22;36446;47.642;-3.018;2022-08-19T07:22:05;20.40;99.90
50512;DHT22;36446;47.642;-3.018;2022-08-19T07:24:31;20.50;99.90
50512;DHT22;36446;47.642;-3.018;2022-08-19T07:26:59;20.50;99.90
50512;DHT22;36446;47.642;-3.018;2022-08-19T07:29:27;20.50;99.90
50512;DHT22;36446;47.642;-3.018;2022-08-19T07:31:54;20.50;99.90
50512;DHT22;36446;47.642;-3.018;2022-08-19T07:34:25;20.50;99.90
50512;DHT22;36446;47.642;-3.018;2022-08-19T07:36:51;20.60;99.90
50512;DHT22;36446;47.642;-3.018;2022-08-19T07:39:23;20.70;99.90
50512;DHT22;36446;47.642;-3.018;2022-08-19T07:41:49;20.70;99.90
50512;DHT22;36446;47.642;-3.018;2022-08-19T07:44:19;20.70;99.90
50512;DHT22;36446;47.642;-3.018;2022-08-19T07:46:49;20.60;99.90
50512;DHT22;36446;47.642;-3.018;2022-08-19T07:49:16;20.60;99.90
50512;DHT22;36446;47.642;-3.018;2022-08-19T07:51:47;20.80;99.90
50512;DHT22;36446;47.642;-3.018;2022-08-19T07:54:13;20.80;99.90
50512;DHT22;36446;47.642;-3.018;2022-08-19T07:56:39;20.80;99.90
50512;DHT22;36446;47.642;-3.018;2022-08-19T07:59:05;20.70;99.90
50512;DHT22;36446;47.642;-3.018;2022-08-19T08:01:31;20.80;99.90
50512;DHT22;36446;47.642;-3.018;2022-08-19T08:03:57;20.80;99.90
50512;DHT22;36446;47.642;-3.018;2022-08-19T08:06:42;20.70;99.90
50512;DHT22;36446;47.642;-3.018;2022-08-19T08:09:32;20.90;99.90
50512;DHT22;36446;47.642;-3.018;2022-08-19T08:12:05;20.90;99.90
50512;DHT22;36446;47.642;-3.018;2022-08-19T08:14:52;21.10;99.90
50512;DHT22;36446;47.642;-3.018;2022-08-19T08:17:21;21.00;99.90
50512;DHT22;36446;47.642;-3.018;2022-08-19T08:19:47;20.90;99.90
50512;DHT22;36446;47.642;-3.018;2022-08-19T08:22:16;21.00;99.90
50512;DHT22;36446;47.642;-3.018;2022-08-19T08:25:12;20.90;99.90
50512;DHT22;36446;47.642;-3.018;2022-08-19T08:27:41;20.90;99.90
50512;DHT22;36446;47.642;-3.018;2022-08-19T08:30:08;20.90;99.90
50512;DHT22;36446;47.642;-3.018;2022-08-19T08:32:36;20.90;99.90
50512;DHT22;36446;47.642;-3.018;2022-08-19T08:35:04;21.00;99.90
50512;DHT22;36446;47.642;-3.018;2022-08-19T08:37:30;20.90;99.90
50512;DHT22;36446;47.642;-3.018;2022-08-19T08:39:56;20.90;99.90
50512;DHT22;36446;47.642;-3.018;2022-08-19T08:42:32;21.00;99.90
50512;DHT22;36446;47.642;-3.018;2022-08-19T08:45:04;21.10;99.90
50512;DHT22;36446;47.642;-3.018;2022-08-19T08:47:35;21.10;99.90
50512;DHT22;36446;47.642;-3.018;2022-08-19T08:50:09;21.20;99.90
50512;DHT22;36446;47.642;-3.018;2022-08-19T08:52:42;21.20;99.90
50512;DHT22;36446;47.642;-3.018;2022-08-19T08:55:22;21.20;99.90
50512;DHT22;36446;47.642;-3.018;2022-08-19T09:00:25;21.30;99.90
50512;DHT22;36446;47.642;-3.018;2022-08-19T09:02:53;21.30;99.90
50512;DHT22;36446;47.642;-3.018;2022-08-19T09:05:20;21.20;99.90
50512;DHT22;36446;47.642;-3.018;2022-08-19T09:08:00;21.30;99.90
50512;DHT22;36446;47.642;-3.018;2022-08-19T09:10:37;21.30;99.90
50512;DHT22;36446;47.642;-3.018;2022-08-19T09:16:02;21.40;99.90
50512;DHT22;36446;47.642;-3.018;2022-08-19T09:18:49;21.50;99.90
50512;DHT22;36446;47.642;-3.018;2022-08-19T09:21:20;21.40;99.90
50512;DHT22;36446;47.642;-3.018;2022-08-19T09:23:46;21.40;99.90
50512;DHT22;36446;47.642;-3.018;2022-08-19T09:26:14;21.40;99.90
50512;DHT22;36446;47.642;-3.018;2022-08-19T09:28:45;21.40;99.90
50512;DHT22;36446;47.642;-3.018;2022-08-19T09:31:13;21.40;99.90
50512;DHT22;36446;47.642;-3.018;2022-08-19T09:33:39;21.40;99.90
50512;DHT22;36446;47.642;-3.018;2022-08-19T09:36:08;21.40;99.90
50512;DHT22;36446;47.642;-3.018;2022-08-19T09:38:35;21.20;99.90
50512;DHT22;36446;47.642;-3.018;2022-08-19T09:41:09;21.20;99.90
50512;DHT22;36446;47.642;-3.018;2022-08-19T09:43:41;21.20;99.90
50512;DHT22;36446;47.642;-3.018;2022-08-19T09:46:08;21.10;99.90
50512;DHT22;36446;47.642;-3.018;2022-08-19T09:48:38;21.30;99.90
50512;DHT22;36446;47.642;-3.018;2022-08-19T09:51:09;21.30;99.90
50512;DHT22;36446;47.642;-3.018;2022-08-19T09:53:36;21.30;99.90
50512;DHT22;36446;47.642;-3.018;2022-08-19T09:56:03;21.30;99.90
50512;DHT22;36446;47.642;-3.018;2022-08-19T09:58:29;21.20;99.90
50512;DHT22;36446;47.642;-3.018;2022-08-19T10:00:57;20.90;99.90
50512;DHT22;36446;47.642;-3.018;2022-08-19T10:03:24;20.40;99.90
50512;DHT22;36446;47.642;-3.018;2022-08-19T10:05:50;20.40;99.90
50512;DHT22;36446;47.642;-3.018;2022-08-19T10:08:18;20.20;99.90
50512;DHT22;36446;47.642;-3.018;2022-08-19T10:10:45;20.20;99.90
50512;DHT22;36446;47.642;-3.018;2022-08-19T10:13:11;20.30;99.90
50512;DHT22;36446;47.642;-3.018;2022-08-19T10:15:37;20.50;99.90
50512;DHT22;36446;47.642;-3.018;2022-08-19T10:18:06;20.50;99.90
50512;DHT22;36446;47.642;-3.018;2022-08-19T10:20:32;20.60;99.90
50512;DHT22;36446;47.642;-3.018;2022-08-19T10:22:57;20.60;99.90
50512;DHT22;36446;47.642;-3.018;2022-08-19T10:25:25;20.90;99.90
50512;DHT22;36446;47.642;-3.018;2022-08-19T10:27:52;21.00;99.90
50512;DHT22;36446;47.642;-3.018;2022-08-19T10:30:18;20.80;99.90
50512;DHT22;36446;47.642;-3.018;2022-08-19T10:32:44;20.70;99.90
50512;DHT22;36446;47.642;-3.018;2022-08-19T10:35:12;20.70;99.90
50512;DHT22;36446;47.642;-3.018;2022-08-19T10:37:38;20.60;99.90
50512;DHT22;36446;47.642;-3.018;2022-08-19T10:40:06;20.40;99.90
50512;DHT22;36446;47.642;-3.018;2022-08-19T10:42:36;20.50;99.90
50512;DHT22;36446;47.642;-3.018;2022-08-19T10:45:03;20.50;99.90
50512;DHT22;36446;47.642;-3.018;2022-08-19T10:47:31;20.70;99.90
50512;DHT22;36446;47.642;-3.018;2022-08-19T10:49:57;20.70;99.90
50512;DHT22;36446;47.642;-3.018;2022-08-19T10:52:47;20.80;99.90
50512;DHT22;36446;47.642;-3.018;2022-08-19T10:55:13;20.90;99.90
50512;DHT22;36446;47.642;-3.018;2022-08-19T10:57:57;20.90;99.90
50512;DHT22;36446;47.642;-3.018;2022-08-19T11:00:24;21.00;99.90
50512;DHT22;36446;47.642;-3.018;2022-08-19T11:02:50;21.00;99.90
50512;DHT22;36446;47.642;-3.018;2022-08-19T11:05:17;21.10;99.90
50512;DHT22;36446;47.642;-3.018;2022-08-19T11:07:44;21.20;99.90
50512;DHT22;36446;47.642;-3.018;2022-08-19T11:10:11;21.00;99.90
50512;DHT22;36446;47.642;-3.018;2022-08-19T11:12:39;21.10;99.90
50512;DHT22;36446;47.642;-3.018;2022-08-19T11:15:09;21.30;99.90
50512;DHT22;36446;47.642;-3.018;2022-08-19T11:17:37;21.30;99.90
50512;DHT22;36446;47.642;-3.018;2022-08-19T11:20:06;21.40;99.90
50512;DHT22;36446;47.642;-3.018;2022-08-19T11:22:32;21.40;99.90
50512;DHT22;36446;47.642;-3.018;2022-08-19T11:24:58;21.40;99.90
50512;DHT22;36446;47.642;-3.018;2022-08-19T11:27:23;21.40;99.90
50512;DHT22;36446;47.642;-3.018;2022-08-19T11:29:49;21.40;99.90
50512;DHT22;36446;47.642;-3.018;2022-08-19T11:32:15;21.40;99.90
50512;DHT22;36446;47.642;-3.018;2022-08-19T11:34:41;21.30;99.90
50512;DHT22;36446;47.642;-3.018;2022-08-19T11:37:07;21.30;99.90
50512;DHT22;36446;47.642;-3.018;2022-08-19T11:39:35;21.30;99.90
50512;DHT22;36446;47.642;-3.018;2022-08-19T11:42:04;21.20;99.90
50512;DHT22;36446;47.642;-3.018;2022-08-19T11:44:50;21.20;99.90
50512;DHT22;36446;47.642;-3.018;2022-08-19T11:47:16;21.20;99.90
50512;DHT22;36446;47.642;-3.018;2022-08-19T11:49:41;21.20;99.90
50512;DHT22;36446;47.642;-3.018;2022-08-19T11:52:08;21.30;99.90
50512;DHT22;36446;47.642;-3.018;2022-08-19T11:54:34;21.30;99.90
50512;DHT22;36446;47.642;-3.018;2022-08-19T11:57:03;21.00;99.90
50512;DHT22;36446;47.642;-3.018;2022-08-19T11:59:28;21.10;99.90
50512;DHT22;36446;47.642;-3.018;2022-08-19T12:01:54;21.00;99.90
50512;DHT22;36446;47.642;-3.018;2022-08-19T12:04:21;21.00;99.90
50512;DHT22;36446;47.642;-3.018;2022-08-19T12:06:47;21.00;99.90
50512;DHT22;36446;47.642;-3.018;2022-08-19T12:09:13;21.00;99.90
50512;DHT22;36446;47.642;-3.018;2022-08-19T12:11:40;20.90;99.90
50512;DHT22;36446;47.642;-3.018;2022-08-19T12:14:10;21.00;99.90
50512;DHT22;36446;47.642;-3.018;2022-08-19T12:16:36;20.90;99.90
50512;DHT22;36446;47.642;-3.018;2022-08-19T12:19:04;20.90;99.90
50512;DHT22;36446;47.642;-3.018;2022-08-19T12:21:32;20.80;99.90
50512;DHT22;36446;47.642;-3.018;2022-08-19T12:23:59;20.70;99.90
50512;DHT22;36446;47.642;-3.018;2022-08-19T12:26:26;20.70;99.90
50512;DHT22;36446;47.642;-3.018;2022-08-19T12:28:52;20.60;99.90
50512;DHT22;36446;47.642;-3.018;2022-08-19T12:31:18;20.50;99.90
50512;DHT22;36446;47.642;-3.018;2022-08-19T12:33:45;20.50;99.90
50512;DHT22;36446;47.642;-3.018;2022-08-19T12:36:13;20.60;99.90
50512;DHT22;36446;47.642;-3.018;2022-08-19T12:38:40;20.50;99.90
50512;DHT22;36446;47.642;-3.018;2022-08-19T12:41:10;20.30;99.90
50512;DHT22;36446;47.642;-3.018;2022-08-19T12:43:38;20.50;99.90
50512;DHT22;36446;47.642;-3.018;2022-08-19T12:46:04;20.30;99.90
50512;DHT22;36446;47.642;-3.018;2022-08-19T12:48:31;20.50;99.90
50512;DHT22;36446;47.642;-3.018;2022-08-19T12:50:57;20.40;99.90
50512;DHT22;36446;47.642;-3.018;2022-08-19T12:53:23;20.20;99.90
50512;DHT22;36446;47.642;-3.018;2022-08-19T12:55:55;20.20;99.90
50512;DHT22;36446;47.642;-3.018;2022-08-19T12:58:21;20.20;99.90
50512;DHT22;36446;47.642;-3.018;2022-08-19T13:00:47;20.20;99.90
50512;DHT22;36446;47.642;-3.018;2022-08-19T13:03:14;20.40;99.90
50512;DHT22;36446;47.642;-3.018;2022-08-19T13:05:40;20.50;99.90
50512;DHT22;36446;47.642;-3.018;2022-08-19T13:08:06;20.50;99.90
50512;DHT22;36446;47.642;-3.018;2022-08-19T13:10:33;20.60;99.90
50512;DHT22;36446;47.642;-3.018;2022-08-19T13:13:05;20.80;99.90
50512;DHT22;36446;47.642;-3.018;2022-08-19T13:15:34;20.80;99.90
50512;DHT22;36446;47.642;-3.018;2022-08-19T13:18:01;20.90;99.90
50512;DHT22;36446;47.642;-3.018;2022-08-19T13:20:26;20.90;99.90
50512;DHT22;36446;47.642;-3.018;2022-08-19T13:22:53;20.90;99.90
50512;DHT22;36446;47.642;-3.018;2022-08-19T13:25:19;20.80;99.90
50512;DHT22;36446;47.642;-3.018;2022-08-19T13:27:47;20.80;99.90
50512;DHT22;36446;47.642;-3.018;2022-08-19T13:30:15;20.90;99.90
50512;DHT22;36446;47.642;-3.018;2022-08-19T13:33:00;21.00;99.90
50512;DHT22;36446;47.642;-3.018;2022-08-19T13:35:47;21.00;99.90
50512;DHT22;36446;47.642;-3.018;2022-08-19T13:38:17;21.20;99.90
50512;DHT22;36446;47.642;-3.018;2022-08-19T13:40:42;21.20;99.90
50512;DHT22;36446;47.642;-3.018;2022-08-19T13:43:09;21.00;99.90
50512;DHT22;36446;47.642;-3.018;2022-08-19T13:45:35;21.10;99.90
50512;DHT22;36446;47.642;-3.018;2022-08-19T13:48:04;21.10;99.90
50512;DHT22;36446;47.642;-3.018;2022-08-19T13:50:39;21.20;99.90
50512;DHT22;36446;47.642;-3.018;2022-08-19T13:53:07;21.40;99.90
50512;DHT22;36446;47.642;-3.018;2022-08-19T13:55:33;21.30;99.90
50512;DHT22;36446;47.642;-3.018;2022-08-19T13:58:00;21.40;99.90
50512;DHT22;36446;47.642;-3.018;2022-08-19T14:00:29;21.50;99.90
50512;DHT22;36446;47.642;-3.018;2022-08-19T14:02:56;21.40;99.90
50512;DHT22;36446;47.642;-3.018;2022-08-19T14:05:24;21.40;99.90
50512;DHT22;36446;47.642;-3.018;2022-08-19T14:07:50;21.50;99.90
50512;DHT22;36446;47.642;-3.018;2022-08-19T14:10:16;21.60;99.90
50512;DHT22;36446;47.642;-3.018;2022-08-19T14:12:42;21.70;99.90
50512;DHT22;36446;47.642;-3.018;2022-08-19T14:15:10;21.80;99.90
50512;DHT22;36446;47.642;-3.018;2022-08-19T14:17:40;21.80;99.90
50512;DHT22;36446;47.642;-3.018;2022-08-19T14:20:08;21.80;99.90
50512;DHT22;36446;47.642;-3.018;2022-08-19T14:22:35;21.80;99.90
50512;DHT22;36446;47.642;-3.018;2022-08-19T14:25:03;21.70;99.90
50512;DHT22;36446;47.642;-3.018;2022-08-19T14:27:29;21.80;99.90
50512;DHT22;36446;47.642;-3.018;2022-08-19T14:29:54;21.90;99.90
50512;DHT22;36446;47.642;-3.018;2022-08-19T14:32:20;22.00;99.90
50512;DHT22;36446;47.642;-3.018;2022-08-19T14:34:47;22.10;99.90
50512;DHT22;36446;47.642;-3.018;2022-08-19T14:37:13;22.00;99.90
50512;DHT22;36446;47.642;-3.018;2022-08-19T14:39:40;22.00;99.90
50512;DHT22;36446;47.642;-3.018;2022-08-19T14:42:07;22.10;99.90
50512;DHT22;36446;47.642;-3.018;2022-08-19T14:44:34;22.10;99.90
50512;DHT22;36446;47.642;-3.018;2022-08-19T14:46:59;22.10;99.90
50512;DHT22;36446;47.642;-3.018;2022-08-19T14:49:25;22.10;99.90
50512;DHT22;36446;47.642;-3.018;2022-08-19T14:51:51;21.90;99.90
50512;DHT22;36446;47.642;-3.018;2022-08-19T14:54:17;21.80;99.90
50512;DHT22;36446;47.642;-3.018;2022-08-19T14:56:42;21.80;99.90
50512;DHT22;36446;47.642;-3.018;2022-08-19T14:59:08;21.90;99.90
50512;DHT22;36446;47.642;-3.018;2022-08-19T15:01:34;21.90;99.90
50512;DHT22;36446;47.642;-3.018;2022-08-19T15:04:00;22.00;99.90
50512;DHT22;36446;47.642;-3.018;2022-08-19T15:06:26;21.90;99.90
50512;DHT22;36446;47.642;-3.018;2022-08-19T15:08:52;21.80;99.90
50512;DHT22;36446;47.642;-3.018;2022-08-19T15:11:22;21.80;99.90
50512;DHT22;36446;47.642;-3.018;2022-08-19T15:13:49;21.70;99.90
50512;DHT22;36446;47.642;-3.018;2022-08-19T15:16:15;21.70;99.90
50512;DHT22;36446;47.642;-3.018;2022-08-19T15:18:42;21.70;99.90
50512;DHT22;36446;47.642;-3.018;2022-08-19T15:21:12;21.70;99.90
50512;DHT22;36446;47.642;-3.018;2022-08-19T15:23:38;21.70;99.90
50512;DHT22;36446;47.642;-3.018;2022-08-19T15:26:05;21.60;99.90
50512;DHT22;36446;47.642;-3.018;2022-08-19T15:28:33;21.60;99.90